createdAt,value
2018-12-04T00:41:39.561Z,1.20
2018-12-04T00:44:10.664Z,0.90
2018-12-04T00:46:41.140Z,1.02
2018-12-04T00:49:11.404Z,1.10
2018-12-04T00:51:42.795Z,1.30
2018-12-04T00:54:13.341Z,1.37
2018-12-04T00:56:43.689Z,1.12
2018-12-04T00:59:16.026Z,1.20
2018-12-04T01:01:46.433Z,1.80
2018-12-04T01:04:17.492Z,1.15
2018-12-04T01:06:49.154Z,0.85
2018-12-04T01:09:19.705Z,0.70
2018-12-04T01:11:50.105Z,0.70
2018-12-04T01:14:20.359Z,0.90
2018-12-04T01:16:50.645Z,0.75
2018-12-04T01:19:20.966Z,0.82
2018-12-04T01:21:51.341Z,1.55
2018-12-04T01:24:21.616Z,1.32
2018-12-04T01:26:51.881Z,0.70
2018-12-04T01:29:22.097Z,0.80
2018-12-04T01:31:52.417Z,0.78
2018-12-04T01:34:22.846Z,0.80
2018-12-04T01:36:53.141Z,1.20
2018-12-04T01:39:23.467Z,1.40
2018-12-04T01:41:54.454Z,0.95
2018-12-04T01:44:24.852Z,1.00
2018-12-04T01:46:55.230Z,1.02
2018-12-04T01:49:25.611Z,0.98
2018-12-04T01:51:55.970Z,1.07
2018-12-04T01:54:26.376Z,1.12
2018-12-04T01:56:56.781Z,0.90
2018-12-04T01:59:27.849Z,0.88
2018-12-04T02:02:01.431Z,0.80
2018-12-04T02:04:32.183Z,0.93
2018-12-04T02:07:02.708Z,0.72
2018-12-04T02:09:34.781Z,0.70
2018-12-04T02:12:05.194Z,0.90
2018-12-04T02:14:36.222Z,1.10
2018-12-04T02:17:06.583Z,1.02
2018-12-04T02:19:37.284Z,1.50
2018-12-04T02:22:08.282Z,0.80
2018-12-04T02:24:38.651Z,0.93
2018-12-04T02:27:08.969Z,1.12
2018-12-04T02:29:39.921Z,1.10
2018-12-04T02:32:11.223Z,0.95
2018-12-04T02:34:41.449Z,1.55
2018-12-04T02:37:11.877Z,0.88
2018-12-04T02:39:42.429Z,1.00
2018-12-04T02:42:12.855Z,0.78
2018-12-04T02:44:44.019Z,1.20
2018-12-04T02:47:14.375Z,0.85
2018-12-04T02:49:44.759Z,1.00
2018-12-04T02:52:15.094Z,0.90
2018-12-04T02:54:45.484Z,0.80
2018-12-04T02:57:15.828Z,1.47
2018-12-04T02:59:48.665Z,0.62
2018-12-04T03:02:21.399Z,0.90
2018-12-04T03:04:51.724Z,0.85
2018-12-04T03:07:22.112Z,1.00
2018-12-04T03:09:52.451Z,1.40
2018-12-04T03:12:24.025Z,1.15
2018-12-04T03:14:55.139Z,1.05
2018-12-04T03:17:26.457Z,1.20
2018-12-04T03:19:56.915Z,1.70
2018-12-04T03:22:27.883Z,1.98
2018-12-04T03:24:58.170Z,1.07
2018-12-04T03:27:28.540Z,0.80
2018-12-04T03:29:59.134Z,1.20
2018-12-04T03:32:29.385Z,1.20
2018-12-04T03:34:59.844Z,1.15
2018-12-04T03:37:30.221Z,1.22
2018-12-04T03:40:00.586Z,1.45
2018-12-04T03:42:30.918Z,1.10
2018-12-04T03:45:01.208Z,1.27
2018-12-04T03:47:31.595Z,1.35
2018-12-04T03:50:02.019Z,1.70
2018-12-04T03:52:32.601Z,1.32
2018-12-04T03:55:03.311Z,1.30
2018-12-04T03:57:33.654Z,1.20
2018-12-04T04:00:05.195Z,1.32
2018-12-04T04:02:36.763Z,1.40
2018-12-04T04:05:07.946Z,1.35
2018-12-04T04:07:38.505Z,1.27
2018-12-04T04:10:09.867Z,1.10
2018-12-04T04:12:40.127Z,1.57
2018-12-04T04:15:10.339Z,1.52
2018-12-04T04:17:40.609Z,1.35
2018-12-04T04:23:01.657Z,2.00
2018-12-04T04:25:32.024Z,2.35
2018-12-04T04:28:02.421Z,1.72
2018-12-04T04:30:32.769Z,1.67
2018-12-04T04:33:04.407Z,1.20
2018-12-04T04:35:34.767Z,2.30
2018-12-04T04:38:05.163Z,2.10
2018-12-04T04:40:35.517Z,1.70
2018-12-04T04:43:06.575Z,2.08
2018-12-04T04:45:36.881Z,1.50
2018-12-04T04:48:07.307Z,2.10
2018-12-04T04:50:37.560Z,1.80
2018-12-04T04:53:07.955Z,1.57
2018-12-04T04:55:38.231Z,1.52
2018-12-04T04:58:08.662Z,1.77
2018-12-04T05:00:41.404Z,2.12
2018-12-04T05:03:11.747Z,1.30
2018-12-04T05:05:42.442Z,1.60
2018-12-04T05:08:12.834Z,1.92
2018-12-04T05:10:43.199Z,1.67
2018-12-04T05:13:13.635Z,2.10
2018-12-04T05:15:43.874Z,1.80
2018-12-04T05:18:14.203Z,2.40
2018-12-04T05:20:44.588Z,1.77
2018-12-04T05:23:14.947Z,1.40
2018-12-04T05:25:45.271Z,1.90
2018-12-04T05:28:15.559Z,1.80
2018-12-04T05:30:45.801Z,1.67
2018-12-04T05:33:16.644Z,2.05
2018-12-04T05:35:55.522Z,1.57
2018-12-04T05:38:26.497Z,1.92
2018-12-04T05:40:56.682Z,1.80
2018-12-04T05:43:27.998Z,1.60
2018-12-04T05:45:58.828Z,1.50
2018-12-04T05:48:29.464Z,1.60
2018-12-04T05:51:00.644Z,1.98
2018-12-04T05:53:36.565Z,1.72
2018-12-04T05:56:12.278Z,1.52
2018-12-04T05:58:42.496Z,1.40
2018-12-04T06:01:13.298Z,1.80
2018-12-04T06:03:44.011Z,1.90
2018-12-04T06:06:14.470Z,2.05
2018-12-04T06:08:45.280Z,1.80
2018-12-04T06:11:15.535Z,1.40
2018-12-04T06:13:46.217Z,1.40
2018-12-04T06:16:46.706Z,1.27
2018-12-04T06:19:19.298Z,2.58
2018-12-04T06:21:59.273Z,1.60
2018-12-04T06:24:29.876Z,2.00
2018-12-04T06:27:00.424Z,1.47
2018-12-04T06:29:30.961Z,1.60
2018-12-04T06:32:08.991Z,1.70
2018-12-04T06:34:41.139Z,1.27
2018-12-04T06:37:12.860Z,1.20
2018-12-04T06:39:43.374Z,1.12
2018-12-04T06:42:15.240Z,1.07
2018-12-04T06:44:47.617Z,1.20
2018-12-04T06:47:20.191Z,1.30
2018-12-04T06:49:50.587Z,1.85
2018-12-04T06:52:21.065Z,1.67
2018-12-04T06:54:56.435Z,1.40
2018-12-04T06:57:28.257Z,1.40
2018-12-04T06:59:58.856Z,1.12
2018-12-04T07:02:29.318Z,1.25
2018-12-04T07:04:59.721Z,1.45
2018-12-04T07:07:31.435Z,1.30
2018-12-04T07:10:02.432Z,1.15
2018-12-04T07:12:34.283Z,1.45
2018-12-04T07:15:05.066Z,1.30
2018-12-04T07:46:44.931Z,1.80
2018-12-04T07:49:15.432Z,1.40
2018-12-04T07:51:45.795Z,1.62
2018-12-04T07:54:18.113Z,2.12
2018-12-04T07:56:48.610Z,1.70
2018-12-04T07:59:19.246Z,1.57
2018-12-04T08:01:53.395Z,1.20
2018-12-04T08:04:23.838Z,2.60
2018-12-04T08:06:54.447Z,1.77
2018-12-04T08:09:25.649Z,1.80
2018-12-04T08:11:56.661Z,2.12
2018-12-04T08:14:27.302Z,1.50
2018-12-04T08:16:57.834Z,1.50
2018-12-04T08:19:28.351Z,1.80
2018-12-04T08:21:58.686Z,1.47
2018-12-04T08:24:30.939Z,1.37
2018-12-04T08:27:01.876Z,1.82
2018-12-04T08:29:33.075Z,2.10
2018-12-04T08:32:04.878Z,2.12
2018-12-04T08:34:35.201Z,1.70
2018-12-04T08:37:05.593Z,1.60
2018-12-04T08:39:36.043Z,1.60
2018-12-04T08:42:06.399Z,1.87
2018-12-04T08:44:37.811Z,1.70
2018-12-04T08:47:08.172Z,2.55
2018-12-04T08:49:38.619Z,2.50
2018-12-04T08:52:08.898Z,2.55
2018-12-04T08:54:39.862Z,1.45
2018-12-04T08:57:10.194Z,2.75
2018-12-04T08:59:40.738Z,2.42
2018-12-04T09:02:12.236Z,2.10
2018-12-04T09:04:42.724Z,1.90
2018-12-04T09:07:13.380Z,1.67
2018-12-04T09:09:44.631Z,1.80
2018-12-04T09:12:15.823Z,2.75
2018-12-04T09:14:46.179Z,2.33
2018-12-04T09:17:17.538Z,1.60
2018-12-04T09:19:48.014Z,2.30
2018-12-04T09:22:19.501Z,1.95
2018-12-04T09:24:52.212Z,1.98
2018-12-04T09:27:23.131Z,1.55
2018-12-04T09:29:54.075Z,1.85
2018-12-04T09:32:24.538Z,1.92
2018-12-04T09:34:54.835Z,2.35
2018-12-04T09:37:25.139Z,1.80
2018-12-04T09:39:55.483Z,1.98
2018-12-04T09:42:26.172Z,1.80
2018-12-04T09:44:57.021Z,2.40
2018-12-04T09:47:27.510Z,3.25
2018-12-04T09:49:58.188Z,2.27
2018-12-04T09:52:29.409Z,5.67
2018-12-04T09:55:00.599Z,2.72
2018-12-04T09:57:31.212Z,2.40
2018-12-04T10:00:02.593Z,7.37
2018-12-04T10:02:33.902Z,2.10
2018-12-04T10:05:05.451Z,2.47
2018-12-04T10:07:36.140Z,1.65
2018-12-04T10:10:08.625Z,1.85
2018-12-04T10:12:39.326Z,2.02
2018-12-04T10:15:10.971Z,1.75
2018-12-04T10:17:42.310Z,1.92
2018-12-04T10:20:14.044Z,2.15
2018-12-04T10:22:44.888Z,2.55
2018-12-04T10:25:15.334Z,2.20
2018-12-04T10:27:45.859Z,1.70
2018-12-04T10:30:16.909Z,2.35
2018-12-04T10:32:50.696Z,1.72
2018-12-04T10:35:22.450Z,3.77
2018-12-04T10:37:52.809Z,3.70
2018-12-04T10:40:23.654Z,2.20
2018-12-04T10:42:54.259Z,3.90
2018-12-04T10:45:25.589Z,2.15
2018-12-04T10:47:56.157Z,3.00
2018-12-04T10:50:26.552Z,2.62
2018-12-04T10:52:59.329Z,2.02
2018-12-04T10:55:29.892Z,1.72
2018-12-04T10:58:01.333Z,2.22
2018-12-04T11:00:35.831Z,1.60
2018-12-04T11:03:11.983Z,1.80
2018-12-04T11:05:43.210Z,1.92
2018-12-04T11:08:13.538Z,1.90
2018-12-04T11:10:43.665Z,1.82
2018-12-04T11:13:14.007Z,2.22
2018-12-04T11:15:44.351Z,2.12
2018-12-04T11:18:14.603Z,1.80
2018-12-04T11:20:45.831Z,2.30
2018-12-04T11:23:16.775Z,2.40
2018-12-04T11:25:47.036Z,2.60
2018-12-04T11:28:17.266Z,2.62
2018-12-04T11:30:47.834Z,2.70
2018-12-04T11:33:18.003Z,2.20
2018-12-04T11:35:48.322Z,2.27
2018-12-04T11:38:19.671Z,1.87
2018-12-04T11:40:50.300Z,2.37
2018-12-04T11:43:20.904Z,2.90
2018-12-04T11:45:51.343Z,2.52
2018-12-04T11:48:22.057Z,2.20
2018-12-04T11:50:53.140Z,2.45
2018-12-04T11:53:23.772Z,2.40
2018-12-04T11:55:54.016Z,2.92
2018-12-04T11:58:25.168Z,2.40
2018-12-04T12:00:56.730Z,2.10
2018-12-04T12:03:27.516Z,2.58
2018-12-04T12:05:58.008Z,2.70
2018-12-04T12:08:29.415Z,2.80
2018-12-04T12:11:00.020Z,3.42
2018-12-04T12:13:31.985Z,2.52
2018-12-04T12:16:02.884Z,3.20
2018-12-04T12:18:40.375Z,3.05
2018-12-04T12:21:17.551Z,2.47
2018-12-04T12:23:48.937Z,2.30
2018-12-04T12:26:21.200Z,4.60
2018-12-04T12:28:54.000Z,3.77
2018-12-04T12:31:30.564Z,3.22
2018-12-04T12:34:02.029Z,3.92
2018-12-04T12:36:36.583Z,3.80
2018-12-04T12:39:10.498Z,3.45
2018-12-04T12:41:45.375Z,4.37
2018-12-04T12:44:15.881Z,3.35
2018-12-04T12:46:47.528Z,3.72
2018-12-04T12:49:23.278Z,3.00
2018-12-04T12:51:54.515Z,3.20
2018-12-04T12:54:29.096Z,3.20
2018-12-04T12:57:02.233Z,2.95
2018-12-04T12:59:39.739Z,3.35
2018-12-04T13:02:11.324Z,3.50
2018-12-04T13:04:43.592Z,4.20
2018-12-04T13:07:16.658Z,4.05
2018-12-04T13:09:51.071Z,4.75
2018-12-04T13:12:23.128Z,3.45
2018-12-04T13:14:56.350Z,3.15
2018-12-04T13:17:28.168Z,4.60
2018-12-04T13:19:58.800Z,3.90
2018-12-04T13:22:29.148Z,4.50
2018-12-04T13:24:59.743Z,3.80
2018-12-04T13:27:30.560Z,3.95
2018-12-04T13:30:01.018Z,3.52
2018-12-04T13:32:31.882Z,3.92
2018-12-04T13:35:03.184Z,3.50
2018-12-04T13:37:34.146Z,4.42
2018-12-04T13:40:08.670Z,3.20
2018-12-04T13:42:37.997Z,3.83
2018-12-04T13:45:09.065Z,4.03
2018-12-04T13:47:41.812Z,4.10
2018-12-04T13:50:13.172Z,5.28
2018-12-04T13:52:43.788Z,6.33
2018-12-04T13:55:15.184Z,5.37
2018-12-04T13:57:50.649Z,4.25
2018-12-04T14:00:19.066Z,4.65
2018-12-04T14:02:49.568Z,4.92
2018-12-04T14:05:22.822Z,5.78
2018-12-04T14:07:53.278Z,3.77
2018-12-04T14:10:24.289Z,5.17
2018-12-04T14:12:54.641Z,5.50
2018-12-04T14:15:26.061Z,5.53
2018-12-04T14:17:56.558Z,4.60
2018-12-04T14:20:27.090Z,3.60
2018-12-04T14:22:57.632Z,3.70
2018-12-04T15:07:48.644Z,3.30
2018-12-04T15:10:19.569Z,2.87
2018-12-04T15:12:50.070Z,2.58
2018-12-04T15:15:20.809Z,2.70
2018-12-04T15:17:52.390Z,2.45
2018-12-04T15:20:22.905Z,2.98
2018-12-04T15:22:53.495Z,2.90
2018-12-04T15:25:24.995Z,2.60
2018-12-04T15:27:55.962Z,3.17
2018-12-04T15:30:26.706Z,3.45
2018-12-04T15:32:57.944Z,2.47
2018-12-04T15:35:30.454Z,3.35
2018-12-04T15:38:05.006Z,2.40
2018-12-04T15:40:37.420Z,2.35
2018-12-04T15:43:12.487Z,3.70
2018-12-04T15:45:45.923Z,2.80
2018-12-04T15:48:21.179Z,3.25
2018-12-04T15:50:59.913Z,3.05
2018-12-04T15:53:30.746Z,2.90
2018-12-04T15:56:02.440Z,3.15
2018-12-04T15:58:33.172Z,2.92
2018-12-04T16:01:05.188Z,2.90
2018-12-04T16:03:35.916Z,2.80
2018-12-04T16:06:07.409Z,3.30
2018-12-04T16:08:37.969Z,3.30
2018-12-04T16:11:08.713Z,3.02
2018-12-04T16:13:39.275Z,3.00
2018-12-04T16:16:11.834Z,3.83
2018-12-04T16:18:51.887Z,3.35
2018-12-04T16:21:25.700Z,3.52
2018-12-04T16:23:57.200Z,3.50
2018-12-04T16:26:28.158Z,3.10
2018-12-04T16:28:59.550Z,3.67
2018-12-04T16:31:37.256Z,3.20
2018-12-04T16:34:15.091Z,3.85
2018-12-04T16:36:48.353Z,3.17
2018-12-04T16:39:28.569Z,4.28
2018-12-04T16:42:03.218Z,3.08
2018-12-04T16:44:36.937Z,4.55
2018-12-04T16:47:12.363Z,3.95
2018-12-04T16:49:46.805Z,3.62
2018-12-04T16:52:22.158Z,4.10
2018-12-04T16:55:00.422Z,3.87
2018-12-04T16:57:32.792Z,4.58
2018-12-04T17:00:17.352Z,4.40
2018-12-04T17:02:50.485Z,5.00
2018-12-04T17:05:30.202Z,4.55
2018-12-04T17:08:03.653Z,5.55
2018-12-04T17:10:37.798Z,4.50
2018-12-04T17:13:12.875Z,4.67
2018-12-04T17:15:49.807Z,5.58
2018-12-04T17:18:24.134Z,4.78
2018-12-04T17:20:56.889Z,5.70
2018-12-04T17:23:35.107Z,5.03
2018-12-04T17:29:11.284Z,5.05
2018-12-04T17:31:46.139Z,5.75
2018-12-04T17:37:18.243Z,5.72
2018-12-04T17:39:54.125Z,5.33
2018-12-04T17:42:30.011Z,5.40
2018-12-04T17:45:05.074Z,5.42
2018-12-04T17:47:39.073Z,5.05
2018-12-04T17:50:13.078Z,5.15
2018-12-04T17:52:49.368Z,5.80
2018-12-04T17:55:23.483Z,6.22
2018-12-04T17:57:57.448Z,6.00
2018-12-04T18:00:31.385Z,6.30
2018-12-04T18:03:06.448Z,5.67
2018-12-04T18:05:43.272Z,5.60
2018-12-04T18:08:16.851Z,5.97
2018-12-04T18:10:49.542Z,7.65
2018-12-04T18:13:24.039Z,6.47
2018-12-04T18:15:55.447Z,6.50
2018-12-04T18:18:27.337Z,8.38
2018-12-04T18:20:59.106Z,8.33
2018-12-04T18:23:29.813Z,6.83
2018-12-04T18:26:00.222Z,6.95
2018-12-04T18:28:30.851Z,6.00
2018-12-04T18:31:02.312Z,6.17
2018-12-04T18:33:32.895Z,6.10
2018-12-04T18:36:03.773Z,6.67
2018-12-04T18:38:34.300Z,8.23
2018-12-04T18:41:07.467Z,6.97
2018-12-04T18:43:39.035Z,6.47
2018-12-04T18:46:10.139Z,7.05
2018-12-04T18:48:41.619Z,6.50
2018-12-04T18:51:13.817Z,6.50
2018-12-04T18:53:44.623Z,6.85
2018-12-04T18:56:15.593Z,7.25
2018-12-04T18:58:48.270Z,7.30
2018-12-04T19:01:18.750Z,7.25
2018-12-04T19:03:51.673Z,6.33
2018-12-04T19:06:22.699Z,6.15
2018-12-04T19:08:53.937Z,7.45
2018-12-04T19:11:24.610Z,6.72
2018-12-04T19:13:55.327Z,8.18
2018-12-04T19:16:26.130Z,6.87
2018-12-04T19:18:58.033Z,7.15
2018-12-04T19:21:29.296Z,7.87
2018-12-04T19:23:59.890Z,7.03
2018-12-04T19:26:30.682Z,8.08
2018-12-04T19:29:01.513Z,8.98
2018-12-04T19:31:34.043Z,8.33
2018-12-04T19:34:09.366Z,9.03
2018-12-04T19:36:41.291Z,8.88
2018-12-04T19:39:11.725Z,7.05
2018-12-04T19:41:42.240Z,8.98
2018-12-04T19:44:12.850Z,9.98
2018-12-04T19:46:43.410Z,9.40
2018-12-04T19:49:14.089Z,10.23
2018-12-04T19:51:45.095Z,8.68
2018-12-04T19:54:20.836Z,8.25
2018-12-04T19:56:53.761Z,8.33
2018-12-04T19:59:25.328Z,7.42
2018-12-04T20:01:57.712Z,8.25
2018-12-04T20:04:30.413Z,7.78
2018-12-04T20:07:02.170Z,9.20
2018-12-04T20:09:33.196Z,9.18
2018-12-04T20:12:05.983Z,9.80
2018-12-04T20:14:36.746Z,9.48
2018-12-04T20:17:08.088Z,11.68
2018-12-04T20:19:40.403Z,11.08
2018-12-04T20:22:12.622Z,10.13
2018-12-04T20:24:43.347Z,10.05
2018-12-04T20:27:16.134Z,9.68
2018-12-04T20:29:49.107Z,9.85
2018-12-04T20:32:20.594Z,11.10
2018-12-04T20:34:52.216Z,9.73
2018-12-04T20:37:27.023Z,9.25
2018-12-04T20:39:57.592Z,8.95
2018-12-04T20:42:30.025Z,8.40
2018-12-04T20:45:07.832Z,7.80
2018-12-04T20:50:42.769Z,9.93
2018-12-04T20:53:19.244Z,8.35
2018-12-04T20:55:50.894Z,8.60
2018-12-04T20:58:25.513Z,8.40
2018-12-04T21:00:57.798Z,8.25
2018-12-04T21:03:38.252Z,9.70
2018-12-04T21:06:11.267Z,8.63
2018-12-04T21:08:52.303Z,7.75
2018-12-04T21:11:28.453Z,8.60
2018-12-04T21:14:00.696Z,11.73
2018-12-04T21:46:34.807Z,10.88
2018-12-04T21:52:08.748Z,11.08
2018-12-04T21:54:40.265Z,9.35
2018-12-04T22:00:01.983Z,9.45
2018-12-04T22:02:36.810Z,8.50
2018-12-04T22:05:07.628Z,8.90
2018-12-04T22:07:38.142Z,9.03
2018-12-04T22:10:11.670Z,7.10
2018-12-04T22:12:42.191Z,9.28
2018-12-04T22:15:13.840Z,7.53
2018-12-04T22:17:45.898Z,8.40
2018-12-04T22:20:17.371Z,8.63
2018-12-04T22:22:48.585Z,8.43
2018-12-04T22:25:19.029Z,8.70
2018-12-04T22:27:49.453Z,7.05
2018-12-04T22:30:20.031Z,9.28
2018-12-04T22:32:50.560Z,9.58
2018-12-04T22:35:21.165Z,7.65
2018-12-04T22:37:51.772Z,9.60
2018-12-04T22:40:22.283Z,9.43
2018-12-04T22:42:53.575Z,9.05
2018-12-04T22:45:25.294Z,9.78
2018-12-04T22:47:56.636Z,9.30
2018-12-04T22:50:27.182Z,8.83
2018-12-04T22:52:58.416Z,8.55
2018-12-04T22:55:29.298Z,8.68
2018-12-04T22:58:00.170Z,9.88
2018-12-04T23:00:40.084Z,10.43
2018-12-04T23:03:11.624Z,8.60
2018-12-04T23:05:42.587Z,9.00
2018-12-04T23:08:13.824Z,9.30
2018-12-04T23:10:45.150Z,9.03
2018-12-04T23:13:20.438Z,9.75
2018-12-04T23:15:52.972Z,9.70
2018-12-04T23:18:23.703Z,9.23
2018-12-04T23:20:55.360Z,8.70
2018-12-04T23:23:27.273Z,9.03
2018-12-04T23:25:58.615Z,9.75
2018-12-04T23:28:29.007Z,9.13
2018-12-04T23:31:00.594Z,10.95
2018-12-04T23:33:31.171Z,9.98
2018-12-04T23:36:02.114Z,9.83
2018-12-04T23:38:41.649Z,10.85
2018-12-04T23:41:12.079Z,9.90
2018-12-04T23:43:45.433Z,11.38
2018-12-04T23:46:16.956Z,10.70
2018-12-04T23:48:48.486Z,10.10
2018-12-04T23:51:20.475Z,9.68
2018-12-04T23:53:50.733Z,10.30
2018-12-04T23:56:21.127Z,10.85
2018-12-04T23:58:51.533Z,11.00
